createdAt,value
2017-03-30T00:00:00.522Z,32.62
2017-03-30T00:00:59.797Z,27.33
2017-03-30T00:01:58.643Z,26.55
2017-03-30T00:02:57.883Z,28.82
2017-03-30T00:03:57.127Z,30.73
2017-03-30T00:04:56.437Z,25.33
2017-03-30T00:05:54.904Z,26.30
2017-03-30T00:06:54.200Z,29.93
2017-03-30T00:07:53.846Z,25.73
2017-03-30T00:08:52.336Z,28.08
2017-03-30T00:09:50.810Z,32.25
2017-03-30T00:10:50.048Z,29.80
2017-03-30T00:11:48.533Z,31.33
2017-03-30T00:12:47.041Z,33.13
2017-03-30T00:13:46.688Z,29.25
2017-03-30T00:14:45.181Z,29.48
2017-03-30T00:15:44.470Z,33.77
2017-03-30T00:16:43.793Z,30.67
2017-03-30T00:17:42.314Z,27.57
2017-03-30T00:18:40.805Z,26.92
2017-03-30T00:19:40.436Z,30.68
2017-03-30T00:20:38.933Z,28.73
2017-03-30T00:21:37.504Z,29.35
2017-03-30T00:22:36.779Z,28.77
2017-03-30T00:23:36.126Z,29.80
2017-03-30T00:24:34.616Z,26.45
2017-03-30T00:25:33.485Z,31.38
2017-03-30T00:26:32.749Z,29.72
2017-03-30T00:27:31.989Z,30.43
2017-03-30T00:28:31.238Z,29.80
2017-03-30T00:29:29.749Z,28.83
2017-03-30T00:30:29.033Z,27.93
2017-03-30T00:31:27.920Z,29.55
2017-03-30T00:32:27.186Z,24.70
2017-03-30T00:33:26.452Z,27.55
2017-03-30T00:34:24.949Z,26.88
2017-03-30T00:35:23.460Z,30.33
2017-03-30T00:36:22.689Z,27.98
2017-03-30T00:37:21.516Z,31.07
2017-03-30T00:38:19.993Z,26.92
2017-03-30T00:39:19.309Z,30.20
2017-03-30T00:40:18.677Z,25.22
2017-03-30T00:41:18.543Z,25.80
2017-03-30T00:42:17.045Z,27.65
2017-03-30T00:43:16.608Z,26.63
2017-03-30T00:44:15.187Z,28.72
2017-03-30T00:45:13.684Z,26.62
2017-03-30T00:46:12.963Z,36.13
2017-03-30T00:47:11.650Z,27.90
2017-03-30T00:48:10.918Z,27.60
2017-03-30T00:49:10.453Z,24.45
2017-03-30T00:50:09.728Z,26.03
2017-03-30T00:51:08.220Z,22.07
2017-03-30T00:52:06.717Z,27.53
2017-03-30T00:53:06.005Z,26.73
2017-03-30T00:54:05.285Z,23.88
2017-03-30T00:55:04.939Z,28.43
2017-03-30T00:56:03.453Z,30.28
2017-03-30T00:57:02.699Z,25.23
2017-03-30T00:58:01.180Z,31.37
2017-03-30T00:58:59.657Z,26.98
2017-03-30T00:59:58.909Z,33.42
2017-03-30T01:00:58.485Z,35.12
2017-03-30T01:01:56.978Z,28.37
2017-03-30T01:02:55.466Z,28.77
2017-03-30T01:03:54.745Z,32.58
2017-03-30T01:04:53.226Z,29.42
2017-03-30T01:05:51.716Z,31.25
2017-03-30T01:06:50.495Z,26.52
2017-03-30T01:07:50.029Z,25.92
2017-03-30T01:08:49.285Z,30.63
2017-03-30T01:09:47.805Z,26.60
2017-03-30T01:10:47.088Z,24.67
2017-03-30T01:11:45.702Z,30.35
2017-03-30T01:12:44.561Z,22.32
2017-03-30T01:13:43.096Z,24.82
2017-03-30T01:14:42.359Z,25.32
2017-03-30T01:15:41.628Z,23.62
2017-03-30T01:16:40.121Z,28.37
2017-03-30T01:17:39.373Z,29.90
2017-03-30T01:18:38.122Z,26.88
2017-03-30T01:19:36.607Z,27.23
2017-03-30T01:20:35.084Z,30.10
2017-03-30T01:21:34.368Z,32.70
2017-03-30T01:22:33.648Z,30.05
2017-03-30T01:23:32.144Z,28.68
2017-03-30T01:24:30.960Z,25.40
2017-03-30T01:25:30.187Z,29.23
2017-03-30T01:26:29.547Z,27.08
2017-03-30T01:27:28.907Z,26.62
2017-03-30T01:28:27.460Z,28.52
2017-03-30T01:29:25.953Z,28.92
2017-03-30T01:30:24.825Z,25.72
2017-03-30T01:31:24.076Z,27.38
2017-03-30T01:32:22.587Z,28.45
2017-03-30T01:33:21.098Z,26.97
2017-03-30T01:34:19.564Z,27.52
2017-03-30T01:35:18.068Z,29.12
2017-03-30T01:36:16.846Z,37.50
2017-03-30T01:37:15.346Z,30.02
2017-03-30T01:38:14.576Z,35.28
2017-03-30T01:39:13.050Z,37.38
2017-03-30T01:40:11.552Z,28.80
2017-03-30T01:41:10.809Z,29.12
2017-03-30T01:42:10.410Z,33.58
2017-03-30T01:43:08.891Z,29.08
2017-03-30T01:44:08.146Z,31.43
2017-03-30T01:45:06.655Z,29.53
2017-03-30T01:46:05.141Z,36.43
2017-03-30T01:47:04.399Z,29.82
2017-03-30T01:48:03.970Z,26.85
2017-03-30T01:49:03.253Z,32.70
2017-03-30T01:50:02.344Z,28.47
2017-03-30T01:51:01.636Z,24.22
2017-03-30T01:52:00.894Z,26.88
2017-03-30T01:53:00.132Z,26.32
2017-03-30T01:53:59.722Z,23.35
2017-03-30T01:54:59.076Z,26.58
2017-03-30T01:55:58.394Z,24.20
2017-03-30T01:56:57.522Z,25.73
2017-03-30T01:57:56.772Z,24.40
2017-03-30T01:58:55.251Z,27.27
2017-03-30T01:59:54.023Z,27.00
2017-03-30T02:00:53.281Z,24.63
2017-03-30T02:01:52.533Z,29.08
2017-03-30T02:02:51.871Z,23.87
2017-03-30T02:03:50.443Z,23.83
2017-03-30T02:04:48.924Z,28.92
2017-03-30T02:05:47.760Z,25.82
2017-03-30T02:06:46.263Z,29.83
2017-03-30T02:07:44.749Z,30.13
2017-03-30T02:08:44.007Z,29.05
2017-03-30T02:09:42.508Z,33.78
2017-03-30T02:10:41.741Z,26.42
2017-03-30T02:11:40.526Z,27.30
2017-03-30T02:12:39.008Z,31.23
2017-03-30T02:13:38.429Z,31.13
2017-03-30T02:14:36.914Z,26.17
2017-03-30T02:15:35.381Z,28.17
2017-03-30T02:16:34.642Z,25.03
2017-03-30T02:17:33.438Z,29.27
2017-03-30T02:18:31.895Z,31.32
2017-03-30T02:19:30.381Z,24.72
2017-03-30T02:20:29.657Z,26.12
2017-03-30T02:21:28.146Z,25.93
2017-03-30T02:22:26.635Z,27.43
2017-03-30T02:23:26.191Z,29.62
2017-03-30T02:24:24.669Z,28.92
2017-03-30T02:25:23.168Z,24.77
2017-03-30T02:26:22.432Z,27.25
2017-03-30T02:27:21.536Z,25.92
2017-03-30T02:28:20.786Z,30.58
2017-03-30T02:29:19.624Z,27.88
2017-03-30T02:30:18.129Z,25.47
2017-03-30T02:31:17.356Z,28.23
2017-03-30T02:32:16.593Z,30.87
2017-03-30T02:33:15.967Z,31.95
2017-03-30T02:34:14.479Z,27.27
2017-03-30T02:35:14.098Z,30.52
2017-03-30T02:36:13.359Z,29.20
2017-03-30T02:37:12.645Z,28.67
2017-03-30T02:38:11.147Z,30.67
2017-03-30T02:39:10.381Z,24.50
2017-03-30T02:40:08.853Z,30.48
2017-03-30T02:41:07.620Z,29.55
2017-03-30T02:42:06.085Z,26.67
2017-03-30T02:43:05.320Z,32.55
2017-03-30T02:44:03.825Z,27.55
2017-03-30T02:45:02.293Z,28.25
2017-03-30T02:46:01.557Z,25.87
2017-03-30T02:47:01.174Z,31.38
2017-03-30T02:47:59.668Z,26.57
2017-03-30T02:48:58.196Z,30.53
2017-03-30T02:49:57.468Z,32.13
2017-03-30T02:50:56.773Z,26.53
2017-03-30T02:51:55.285Z,27.38
2017-03-30T02:52:54.149Z,27.55
2017-03-30T02:53:52.630Z,30.12
2017-03-30T02:54:51.112Z,34.33
2017-03-30T02:55:49.617Z,31.58
2017-03-30T02:56:48.176Z,25.73
2017-03-30T02:57:46.695Z,30.13
2017-03-30T02:58:46.234Z,23.67
2017-03-30T02:59:44.725Z,30.87
2017-03-30T03:00:43.245Z,25.55
2017-03-30T03:01:42.504Z,28.55
2017-03-30T03:02:41.021Z,29.08
2017-03-30T03:03:40.292Z,29.63
2017-03-30T03:04:39.058Z,25.98
2017-03-30T03:05:38.316Z,27.77
2017-03-30T03:06:36.965Z,24.70
2017-03-30T03:07:36.210Z,27.27
2017-03-30T03:08:35.503Z,26.15
2017-03-30T03:09:33.988Z,25.97
2017-03-30T03:10:32.755Z,30.68
2017-03-30T03:11:31.366Z,22.98
2017-03-30T03:12:30.637Z,29.18
2017-03-30T03:13:29.915Z,28.55
2017-03-30T03:14:28.492Z,27.17
2017-03-30T03:15:26.995Z,25.95
2017-03-30T03:16:25.913Z,26.48
2017-03-30T03:17:24.481Z,25.10
2017-03-30T03:18:22.971Z,28.62
2017-03-30T03:19:21.449Z,26.88
2017-03-30T03:20:20.749Z,25.77
2017-03-30T03:21:20.128Z,26.77
2017-03-30T03:22:18.887Z,23.28
2017-03-30T03:23:18.199Z,24.07
2017-03-30T03:24:17.425Z,26.50
2017-03-30T03:25:15.915Z,27.28
2017-03-30T03:26:15.153Z,29.37
2017-03-30T03:27:14.447Z,30.10
2017-03-30T03:28:13.319Z,30.45
2017-03-30T03:29:11.803Z,30.02
2017-03-30T03:30:11.056Z,27.00
2017-03-30T03:31:10.303Z,26.92
2017-03-30T03:32:08.776Z,23.13
2017-03-30T03:33:07.272Z,27.38
2017-03-30T03:34:06.073Z,25.90
2017-03-30T03:35:05.337Z,25.60
2017-03-30T03:36:04.880Z,25.80
2017-03-30T03:37:04.139Z,27.78
2017-03-30T03:38:03.388Z,25.90
2017-03-30T03:39:01.861Z,23.27
2017-03-30T03:40:00.617Z,26.85
2017-03-30T03:40:59.855Z,27.08
2017-03-30T03:41:59.136Z,26.05
2017-03-30T03:42:58.397Z,28.10
2017-03-30T03:43:56.869Z,32.08
2017-03-30T03:44:55.337Z,25.88
2017-03-30T03:45:54.180Z,24.98
2017-03-30T03:46:52.656Z,32.05
2017-03-30T03:47:51.168Z,31.37
2017-03-30T03:48:49.640Z,30.02
2017-03-30T03:49:48.124Z,29.72
2017-03-30T03:50:46.622Z,27.15
2017-03-30T03:51:45.434Z,25.43
2017-03-30T03:52:44.782Z,28.50
2017-03-30T03:53:43.285Z,31.00
2017-03-30T03:54:42.540Z,29.97
2017-03-30T03:55:41.054Z,27.87
2017-03-30T03:56:40.317Z,27.47
2017-03-30T03:57:39.988Z,30.77
2017-03-30T03:58:38.479Z,25.43
2017-03-30T03:59:36.936Z,29.40
2017-03-30T04:00:35.429Z,29.43
2017-03-30T04:01:34.715Z,29.80
2017-03-30T04:02:33.208Z,28.23
2017-03-30T04:03:32.780Z,25.15
2017-03-30T04:04:31.260Z,29.05
2017-03-30T04:05:29.926Z,25.23
2017-03-30T04:06:28.399Z,25.30
2017-03-30T04:07:26.909Z,24.35
2017-03-30T04:08:26.182Z,23.68
2017-03-30T04:09:26.444Z,29.07
2017-03-30T04:10:25.979Z,26.58
2017-03-30T04:11:25.252Z,25.80
2017-03-30T04:12:23.716Z,27.80
2017-03-30T04:13:22.965Z,23.33
2017-03-30T04:14:21.444Z,26.18
2017-03-30T04:15:20.321Z,30.97
2017-03-30T04:16:18.782Z,25.62
2017-03-30T04:17:17.261Z,27.73
2017-03-30T04:18:16.535Z,27.23
2017-03-30T04:19:15.806Z,24.32
2017-03-30T04:20:14.340Z,24.22
2017-03-30T04:21:13.260Z,28.23
2017-03-30T04:22:11.761Z,24.73
2017-03-30T04:23:11.022Z,29.20
2017-03-30T04:24:09.525Z,29.02
2017-03-30T04:25:08.000Z,24.75
2017-03-30T04:26:06.461Z,25.97
2017-03-30T04:27:06.069Z,25.38
2017-03-30T04:28:04.574Z,29.13
2017-03-30T04:29:03.028Z,22.88
2017-03-30T04:30:01.547Z,26.45
2017-03-30T04:31:00.825Z,22.55
2017-03-30T04:31:59.288Z,27.75
2017-03-30T04:32:58.102Z,27.95
2017-03-30T04:33:56.685Z,25.85
2017-03-30T04:34:55.181Z,25.17
2017-03-30T04:35:54.454Z,28.68
2017-03-30T04:36:53.720Z,25.88
2017-03-30T04:37:52.964Z,26.53
2017-03-30T04:38:51.744Z,27.52
2017-03-30T04:39:51.004Z,23.10
2017-03-30T04:40:50.261Z,26.02
2017-03-30T04:41:49.603Z,26.58
2017-03-30T04:42:48.151Z,25.78
2017-03-30T04:43:46.636Z,26.90
2017-03-30T04:44:45.507Z,27.60
2017-03-30T04:45:43.966Z,27.75
2017-03-30T04:46:43.246Z,25.23
2017-03-30T04:47:41.740Z,22.70
2017-03-30T04:48:40.224Z,28.25
2017-03-30T04:49:39.484Z,25.48
2017-03-30T04:50:39.036Z,26.58
2017-03-30T04:51:37.535Z,27.87
2017-03-30T04:52:36.838Z,23.00
2017-03-30T04:53:36.102Z,30.53
2017-03-30T04:54:34.584Z,23.20
2017-03-30T04:55:33.182Z,27.08
2017-03-30T04:56:32.000Z,23.37
2017-03-30T04:57:30.559Z,25.03
2017-03-30T04:58:29.237Z,27.57
2017-03-30T04:59:27.800Z,28.92
2017-03-30T05:00:27.102Z,27.60
2017-03-30T05:01:26.481Z,34.50
2017-03-30T05:02:25.256Z,28.82
2017-03-30T05:03:24.500Z,25.03
2017-03-30T05:04:23.232Z,25.87
2017-03-30T05:05:23.026Z,25.85
2017-03-30T05:06:21.504Z,28.23
2017-03-30T05:07:20.822Z,23.08
2017-03-30T05:08:20.448Z,21.38
2017-03-30T05:09:19.040Z,23.37
2017-03-30T05:10:17.599Z,20.63
2017-03-30T05:11:16.104Z,26.57
2017-03-30T05:12:14.698Z,25.83
2017-03-30T05:13:14.072Z,24.37
2017-03-30T05:14:13.635Z,24.65
2017-03-30T05:15:12.902Z,30.43
2017-03-30T05:16:11.399Z,30.85
2017-03-30T05:17:09.884Z,32.05
2017-03-30T05:18:09.308Z,31.63
2017-03-30T05:19:07.825Z,28.08
2017-03-30T05:20:07.435Z,32.35
2017-03-30T05:21:05.905Z,34.87
2017-03-30T05:22:04.411Z,35.60
2017-03-30T05:23:03.648Z,34.48
2017-03-30T05:24:02.880Z,34.33
2017-03-30T05:25:02.216Z,31.15
2017-03-30T05:26:01.817Z,35.30
2017-03-30T05:27:01.164Z,34.90
2017-03-30T05:27:59.634Z,37.20
2017-03-30T05:28:58.111Z,34.12
2017-03-30T05:29:56.682Z,39.58
2017-03-30T05:30:55.984Z,40.15
2017-03-30T05:31:54.861Z,30.83
2017-03-30T05:32:54.142Z,37.55
2017-03-30T05:33:52.784Z,35.48
2017-03-30T05:34:52.238Z,37.63
2017-03-30T05:35:51.120Z,40.43
2017-03-30T05:36:49.981Z,38.35
2017-03-30T05:37:48.821Z,40.68
2017-03-30T05:38:48.086Z,41.80
2017-03-30T05:39:46.685Z,43.93
2017-03-30T05:40:45.216Z,34.73
2017-03-30T05:41:43.762Z,36.10
2017-03-30T05:42:43.053Z,34.27
2017-03-30T05:43:41.799Z,43.27
2017-03-30T05:44:41.059Z,39.42
2017-03-30T05:45:39.549Z,39.53
2017-03-30T05:46:38.785Z,38.57
2017-03-30T05:47:38.089Z,39.92
2017-03-30T05:48:36.573Z,44.15
2017-03-30T05:49:36.136Z,32.68
2017-03-30T05:50:34.633Z,41.33
2017-03-30T05:51:33.922Z,33.52
2017-03-30T05:52:33.225Z,36.28
2017-03-30T05:53:31.822Z,36.32
2017-03-30T05:54:30.333Z,45.30
2017-03-30T05:55:30.109Z,35.35
2017-03-30T05:56:28.623Z,38.97
2017-03-30T05:57:27.155Z,35.83
2017-03-30T05:58:26.159Z,33.13
2017-03-30T05:59:25.476Z,52.15
2017-03-30T06:00:24.731Z,54.55
2017-03-30T06:01:23.676Z,35.53
2017-03-30T06:02:22.144Z,37.20
2017-03-30T06:03:20.677Z,30.75
2017-03-30T06:04:19.920Z,38.68
2017-03-30T06:05:19.200Z,37.10
2017-03-30T06:06:18.445Z,34.20
2017-03-30T06:07:17.299Z,33.93
2017-03-30T06:08:15.795Z,40.32
2017-03-30T06:09:15.044Z,43.48
2017-03-30T06:10:13.536Z,42.37
2017-03-30T06:11:12.052Z,41.60
2017-03-30T06:12:10.540Z,34.98
2017-03-30T06:13:09.420Z,33.93
2017-03-30T06:14:08.670Z,39.32
2017-03-30T06:15:07.225Z,38.03
2017-03-30T06:16:05.798Z,45.75
2017-03-30T06:17:04.329Z,39.25
2017-03-30T06:18:03.566Z,52.57
2017-03-30T06:19:02.352Z,41.48
2017-03-30T06:20:01.192Z,39.98
2017-03-30T06:20:59.713Z,36.63
2017-03-30T06:21:58.956Z,35.62
2017-03-30T06:22:57.472Z,50.90
2017-03-30T06:23:56.722Z,36.92
2017-03-30T06:24:55.485Z,43.63
2017-03-30T06:25:54.792Z,40.72
2017-03-30T06:26:53.269Z,41.65
2017-03-30T06:27:51.745Z,43.63
2017-03-30T06:28:50.991Z,36.30
2017-03-30T06:29:49.448Z,47.47
2017-03-30T06:30:48.236Z,34.30
2017-03-30T06:31:46.728Z,37.40
2017-03-30T06:32:45.968Z,37.27
2017-03-30T06:33:44.462Z,39.83
2017-03-30T06:34:42.959Z,40.65
2017-03-30T06:35:42.225Z,31.05
2017-03-30T06:36:41.073Z,33.15
2017-03-30T06:37:39.558Z,32.12
2017-03-30T06:38:38.800Z,40.28
2017-03-30T06:39:37.289Z,35.03
2017-03-30T06:40:35.789Z,40.73
2017-03-30T06:41:35.040Z,35.15
2017-03-30T06:42:34.628Z,30.25
2017-03-30T06:43:33.127Z,27.82
2017-03-30T06:44:32.370Z,29.90
2017-03-30T06:45:30.840Z,36.83
2017-03-30T06:46:29.308Z,30.22
2017-03-30T06:47:27.907Z,27.22
2017-03-30T06:48:27.453Z,34.92
2017-03-30T06:49:27.313Z,37.02
2017-03-30T06:50:26.555Z,42.32
2017-03-30T06:51:25.055Z,39.47
2017-03-30T06:52:23.554Z,28.07
2017-03-30T06:53:22.052Z,39.92
2017-03-30T06:54:21.022Z,38.07
2017-03-30T06:55:19.509Z,42.25
2017-03-30T06:56:17.980Z,34.68
2017-03-30T06:57:16.554Z,47.67
2017-03-30T06:58:15.801Z,36.87
2017-03-30T06:59:14.293Z,36.37
2017-03-30T07:00:13.832Z,34.85
2017-03-30T07:01:12.402Z,35.32
2017-03-30T07:02:10.996Z,37.23
2017-03-30T07:03:09.474Z,37.38
2017-03-30T07:04:08.729Z,35.88
2017-03-30T07:05:07.262Z,33.30
2017-03-30T07:06:06.271Z,54.78
2017-03-30T07:07:04.873Z,41.92
2017-03-30T07:08:03.368Z,41.27
2017-03-30T07:09:01.893Z,39.78
2017-03-30T07:10:00.380Z,36.95
2017-03-30T07:10:58.871Z,36.25
2017-03-30T07:11:57.681Z,37.92
2017-03-30T07:12:56.466Z,40.75
2017-03-30T07:13:54.968Z,36.73
2017-03-30T07:14:54.229Z,36.90
2017-03-30T07:15:52.733Z,31.58
2017-03-30T07:16:51.200Z,41.15
2017-03-30T07:17:50.216Z,33.88
2017-03-30T07:18:49.473Z,33.70
2017-03-30T07:19:48.745Z,38.75
2017-03-30T07:20:47.268Z,35.67
2017-03-30T07:21:46.557Z,32.17
2017-03-30T07:22:45.822Z,34.87
2017-03-30T07:23:44.666Z,31.73
2017-03-30T07:24:43.901Z,32.08
2017-03-30T07:25:43.177Z,36.37
2017-03-30T07:26:41.693Z,41.75
2017-03-30T07:27:40.157Z,29.28
2017-03-30T07:28:39.408Z,33.13
2017-03-30T07:29:38.952Z,34.63
2017-03-30T07:30:37.434Z,34.05
2017-03-30T07:31:35.943Z,37.05
2017-03-30T07:32:35.207Z,42.05
2017-03-30T07:33:34.469Z,40.95
2017-03-30T07:34:33.755Z,44.97
2017-03-30T07:35:32.500Z,36.35
2017-03-30T07:36:31.746Z,35.18
2017-03-30T07:37:30.249Z,36.22
2017-03-30T07:38:28.726Z,33.03
2017-03-30T07:39:27.975Z,31.38
2017-03-30T07:40:26.489Z,40.08
2017-03-30T07:41:25.339Z,36.78
2017-03-30T07:42:23.836Z,36.10
2017-03-30T07:43:22.319Z,34.98
2017-03-30T07:44:21.608Z,45.23
2017-03-30T07:45:20.879Z,43.97
2017-03-30T07:46:20.162Z,37.12
2017-03-30T07:47:19.760Z,35.82
2017-03-30T07:48:18.645Z,33.58
2017-03-30T07:49:17.906Z,50.47
2017-03-30T07:50:16.405Z,50.55
2017-03-30T07:51:14.907Z,43.88
2017-03-30T07:52:13.419Z,47.30
2017-03-30T07:53:13.065Z,41.42
2017-03-30T07:54:11.553Z,37.25
2017-03-30T07:55:10.028Z,45.98
2017-03-30T07:56:08.504Z,46.02
2017-03-30T07:57:06.995Z,43.90
2017-03-30T07:58:05.522Z,36.07
2017-03-30T07:59:05.073Z,33.32
2017-03-30T08:00:03.665Z,29.60
2017-03-30T08:01:02.219Z,38.75
2017-03-30T08:02:00.736Z,36.03
2017-03-30T08:02:59.212Z,36.50
2017-03-30T08:03:57.734Z,35.18
2017-03-30T08:04:57.289Z,34.50
2017-03-30T08:05:56.873Z,40.67
2017-03-30T08:06:56.155Z,40.58
2017-03-30T08:07:54.684Z,43.52
2017-03-30T08:08:53.935Z,41.28
2017-03-30T08:09:52.412Z,43.77
2017-03-30T08:10:51.238Z,37.60
2017-03-30T08:11:50.512Z,46.40
2017-03-30T08:12:49.741Z,36.78
2017-03-30T08:13:48.210Z,40.53
2017-03-30T08:14:46.724Z,43.78
2017-03-30T08:15:46.062Z,43.22
2017-03-30T08:16:44.840Z,35.88
2017-03-30T08:17:43.400Z,32.70
2017-03-30T08:18:41.899Z,34.03
2017-03-30T08:19:40.401Z,36.82
2017-03-30T08:20:38.900Z,44.60
2017-03-30T08:21:37.383Z,48.98
2017-03-30T08:22:36.207Z,40.57
2017-03-30T08:23:35.508Z,43.25
2017-03-30T08:24:34.751Z,36.38
2017-03-30T08:25:34.045Z,41.52
2017-03-30T08:26:32.521Z,37.05
2017-03-30T08:27:30.992Z,41.33
2017-03-30T08:28:29.880Z,42.85
2017-03-30T08:29:28.372Z,40.25
2017-03-30T08:30:26.925Z,37.72
2017-03-30T08:31:26.156Z,38.18
2017-03-30T08:32:24.641Z,41.17
2017-03-30T08:33:23.099Z,35.18
2017-03-30T08:34:21.869Z,42.58
2017-03-30T08:35:21.136Z,44.68
2017-03-30T08:36:20.368Z,40.22
2017-03-30T08:37:18.827Z,38.33
2017-03-30T08:38:17.383Z,38.83
2017-03-30T08:39:16.633Z,37.43
2017-03-30T08:40:16.272Z,38.35
2017-03-30T08:41:15.536Z,34.23
2017-03-30T08:42:14.076Z,34.90
2017-03-30T08:43:12.564Z,38.07
2017-03-30T08:44:11.828Z,37.57
2017-03-30T08:45:10.301Z,42.83
2017-03-30T08:46:09.109Z,38.25
2017-03-30T08:47:07.596Z,41.12
2017-03-30T08:48:06.062Z,36.35
2017-03-30T08:49:04.576Z,38.90
2017-03-30T08:50:03.852Z,34.53
2017-03-30T08:51:02.322Z,41.18
2017-03-30T08:52:01.097Z,35.42
2017-03-30T08:52:59.572Z,40.07
2017-03-30T08:53:58.045Z,41.97
2017-03-30T08:54:56.523Z,39.53
2017-03-30T08:55:55.463Z,29.17
2017-03-30T08:56:53.941Z,38.45
2017-03-30T08:57:52.715Z,40.93
2017-03-30T08:58:51.227Z,36.68
2017-03-30T08:59:50.484Z,43.98
2017-03-30T09:00:49.765Z,42.63
2017-03-30T09:01:48.249Z,37.30
2017-03-30T09:02:47.488Z,35.90
2017-03-30T09:03:46.272Z,36.57
2017-03-30T09:04:44.760Z,38.50
2017-03-30T09:05:43.280Z,36.92
2017-03-30T09:06:41.748Z,41.40
2017-03-30T09:07:40.763Z,40.50
2017-03-30T09:08:39.251Z,38.40
2017-03-30T09:09:38.828Z,38.38
2017-03-30T09:10:37.305Z,37.90
2017-03-30T09:11:36.567Z,41.07
2017-03-30T09:12:35.060Z,41.75
2017-03-30T09:13:34.320Z,38.22
2017-03-30T09:14:32.792Z,40.47
2017-03-30T09:15:31.646Z,38.18
2017-03-30T09:16:30.144Z,33.63
2017-03-30T09:17:29.437Z,36.52
2017-03-30T09:18:28.699Z,31.95
2017-03-30T09:19:27.232Z,32.67
2017-03-30T09:20:25.752Z,33.05
2017-03-30T09:21:25.301Z,40.70
2017-03-30T09:22:24.645Z,41.18
2017-03-30T09:23:23.907Z,38.57
2017-03-30T09:24:23.138Z,34.20
2017-03-30T09:25:28.020Z,37.77
2017-03-30T09:26:27.553Z,36.45
2017-03-30T09:27:26.081Z,37.28
2017-03-30T09:28:24.577Z,38.40
2017-03-30T09:29:23.041Z,37.57
2017-03-30T09:30:21.503Z,32.27
2017-03-30T09:31:20.740Z,35.23
2017-03-30T09:32:19.579Z,34.65
2017-03-30T09:33:18.104Z,36.32
2017-03-30T09:34:16.598Z,30.25
2017-03-30T09:35:15.097Z,33.88
2017-03-30T09:36:13.580Z,34.35
2017-03-30T09:37:12.045Z,37.60
2017-03-30T09:38:11.684Z,32.10
2017-03-30T09:39:10.976Z,32.97
2017-03-30T09:40:10.280Z,33.65
2017-03-30T09:41:08.743Z,26.82
2017-03-30T09:42:07.997Z,35.95
2017-03-30T09:43:07.224Z,33.77
2017-03-30T09:44:06.880Z,35.50
2017-03-30T09:45:05.365Z,33.72
2017-03-30T09:46:04.618Z,35.80
2017-03-30T09:47:03.860Z,32.40
2017-03-30T09:48:02.385Z,30.48
2017-03-30T09:49:00.902Z,32.72
2017-03-30T09:49:59.746Z,33.72
2017-03-30T09:50:58.244Z,36.72
2017-03-30T09:51:57.545Z,34.35
2017-03-30T09:52:56.005Z,30.75
2017-03-30T09:53:55.253Z,32.52
2017-03-30T09:54:54.501Z,32.57
2017-03-30T09:55:54.192Z,29.45
2017-03-30T09:56:52.670Z,30.25
2017-03-30T09:57:51.158Z,33.00
2017-03-30T09:58:50.449Z,35.02
2017-03-30T09:59:49.740Z,35.07
2017-03-30T10:00:48.979Z,29.88
2017-03-30T10:01:47.848Z,32.20
2017-03-30T10:02:46.360Z,32.40
2017-03-30T10:03:45.632Z,31.30
2017-03-30T10:04:44.090Z,35.05
2017-03-30T10:05:42.601Z,29.33
2017-03-30T10:06:41.076Z,30.53
2017-03-30T10:07:39.848Z,30.23
2017-03-30T10:08:38.344Z,26.93
2017-03-30T10:09:37.613Z,27.30
2017-03-30T10:10:36.173Z,25.97
2017-03-30T10:11:34.681Z,29.18
2017-03-30T10:12:33.164Z,27.83
2017-03-30T10:13:32.704Z,30.45
2017-03-30T10:14:31.184Z,27.78
2017-03-30T10:15:30.420Z,27.72
2017-03-30T10:16:28.906Z,30.53
2017-03-30T10:17:27.371Z,27.20
2017-03-30T10:18:25.858Z,29.15
2017-03-30T10:19:24.712Z,28.43
2017-03-30T10:20:23.956Z,28.03
2017-03-30T10:21:23.244Z,22.00
2017-03-30T10:22:22.533Z,26.88
2017-03-30T10:23:21.102Z,26.60
2017-03-30T10:24:20.366Z,23.12
2017-03-30T10:25:19.912Z,22.78
2017-03-30T10:26:18.549Z,24.13
2017-03-30T10:27:17.059Z,21.40
2017-03-30T10:28:15.665Z,22.23
2017-03-30T10:29:14.216Z,22.57
2017-03-30T10:30:13.528Z,25.95
2017-03-30T10:31:12.352Z,25.32
2017-03-30T10:32:11.596Z,24.80
2017-03-30T10:33:10.152Z,27.87
2017-03-30T10:34:08.636Z,26.52
2017-03-30T10:35:07.131Z,24.20
2017-03-30T10:36:05.603Z,25.85
2017-03-30T10:37:04.414Z,23.73
2017-03-30T10:38:02.958Z,26.43
2017-03-30T10:39:02.273Z,25.20
2017-03-30T10:40:00.769Z,25.77
2017-03-30T10:42:04.276Z,20.47
2017-03-30T10:43:03.524Z,20.53
2017-03-30T10:44:01.992Z,20.43
2017-03-30T10:45:00.461Z,18.15
2017-03-30T10:45:58.929Z,19.37
2017-03-30T10:46:57.436Z,20.82
2017-03-30T10:47:57.084Z,20.20
2017-03-30T10:48:56.340Z,22.88
2017-03-30T10:49:54.811Z,21.07
2017-03-30T10:50:53.260Z,23.87
2017-03-30T10:51:52.532Z,21.60
2017-03-30T10:52:51.804Z,25.18
2017-03-30T10:53:50.659Z,23.13
2017-03-30T10:54:49.138Z,20.97
2017-03-30T10:55:54.344Z,21.25
2017-03-30T10:56:53.585Z,21.82
2017-03-30T10:57:52.088Z,22.80
2017-03-30T10:58:51.019Z,24.30
2017-03-30T10:59:49.491Z,23.28
2017-03-30T11:00:48.045Z,20.30
2017-03-30T11:01:47.284Z,23.93
2017-03-30T11:02:45.754Z,20.03
2017-03-30T11:03:44.233Z,19.18
2017-03-30T11:04:43.868Z,21.13
2017-03-30T11:05:42.365Z,23.37
2017-03-30T11:06:40.864Z,21.78
2017-03-30T11:07:40.124Z,21.23
2017-03-30T11:08:39.411Z,24.45
2017-03-30T11:09:37.897Z,23.78
2017-03-30T11:10:37.460Z,25.78
2017-03-30T11:11:35.997Z,24.85
2017-03-30T11:12:34.529Z,23.28
2017-03-30T11:13:33.774Z,23.30
2017-03-30T11:14:33.017Z,22.65
2017-03-30T11:15:31.485Z,23.20
2017-03-30T11:16:31.088Z,26.13
2017-03-30T11:17:29.556Z,22.47
2017-03-30T11:18:28.087Z,22.58
2017-03-30T11:19:27.382Z,22.28
2017-03-30T11:20:25.893Z,24.38
2017-03-30T11:21:24.376Z,25.60
2017-03-30T11:22:23.921Z,26.62
2017-03-30T11:23:22.396Z,22.77
2017-03-30T11:24:20.882Z,27.62
2017-03-30T11:25:19.402Z,25.83
2017-03-30T11:26:18.660Z,25.33
2017-03-30T11:27:17.898Z,24.47
2017-03-30T11:28:17.495Z,22.47
2017-03-30T11:29:16.009Z,27.87
2017-03-30T11:30:14.470Z,27.00
2017-03-30T11:31:13.734Z,28.25
2017-03-30T11:32:12.997Z,27.88
2017-03-30T11:33:11.552Z,27.05
2017-03-30T11:34:11.080Z,30.32
2017-03-30T11:35:10.340Z,27.95
2017-03-30T11:36:08.824Z,29.32
2017-03-30T11:37:08.085Z,28.78
2017-03-30T11:38:07.351Z,29.18
2017-03-30T11:39:05.850Z,26.60
2017-03-30T11:40:04.701Z,29.97
2017-03-30T11:41:03.161Z,27.05
2017-03-30T11:42:01.636Z,22.75
2017-03-30T11:43:00.112Z,26.60
2017-03-30T11:43:58.596Z,22.27
2017-03-30T11:44:57.874Z,24.45
2017-03-30T11:45:57.508Z,22.42
2017-03-30T11:46:55.985Z,24.02
2017-03-30T11:47:55.225Z,23.48
2017-03-30T11:48:54.500Z,23.20
2017-03-30T11:49:53.776Z,23.37
2017-03-30T11:50:53.095Z,24.07
2017-03-30T11:51:51.839Z,20.12
2017-03-30T11:52:50.312Z,21.83
2017-03-30T11:53:48.799Z,23.48
2017-03-30T11:54:47.273Z,23.67
2017-03-30T11:55:46.602Z,21.27
2017-03-30T11:56:45.085Z,20.38
2017-03-30T11:57:44.655Z,22.15
2017-03-30T11:58:43.143Z,22.98
2017-03-30T11:59:42.456Z,23.07
2017-03-30T12:00:41.706Z,23.02
2017-03-30T12:01:40.991Z,21.18
2017-03-30T12:02:39.453Z,18.73
2017-03-30T12:03:38.301Z,19.68
2017-03-30T12:04:36.778Z,23.70
2017-03-30T12:05:35.290Z,20.72
2017-03-30T12:06:33.776Z,21.93
2017-03-30T12:07:33.009Z,22.00
2017-03-30T12:08:32.252Z,24.17
2017-03-30T12:09:31.031Z,23.18
2017-03-30T12:10:30.311Z,23.78
2017-03-30T12:11:29.619Z,23.20
2017-03-30T12:12:28.101Z,22.37
2017-03-30T12:13:27.348Z,20.00
2017-03-30T12:14:25.861Z,23.32
2017-03-30T12:15:25.512Z,20.00
2017-03-30T12:16:24.749Z,21.58
2017-03-30T12:17:23.241Z,22.42
2017-03-30T12:18:21.775Z,21.90
2017-03-30T12:19:21.036Z,24.30
2017-03-30T12:20:20.286Z,22.28
2017-03-30T12:21:19.053Z,21.83
2017-03-30T12:22:17.509Z,25.23
2017-03-30T12:23:16.771Z,23.78
2017-03-30T12:24:15.291Z,26.03
2017-03-30T12:25:14.920Z,21.93
2017-03-30T12:26:13.387Z,25.43
2017-03-30T12:27:12.923Z,23.73
2017-03-30T12:28:11.421Z,21.05
2017-03-30T12:29:09.905Z,21.00
2017-03-30T12:30:09.189Z,21.97
2017-03-30T12:31:08.425Z,22.25
2017-03-30T12:32:06.953Z,20.88
2017-03-30T12:33:05.763Z,25.67
2017-03-30T12:34:04.228Z,24.03
2017-03-30T12:35:02.741Z,20.08
2017-03-30T12:36:01.231Z,21.75
2017-03-30T12:36:59.712Z,25.22
2017-03-30T12:37:58.954Z,23.33
2017-03-30T12:38:58.591Z,22.07